createdAt,value
2023-04-12T00:00:11.727Z,100013.63
2023-04-12T00:02:39.729Z,99936.16
2023-04-12T00:05:09.405Z,99991.41
2023-04-12T00:07:35.984Z,99956.13
2023-04-12T00:10:03.137Z,99971.19
2023-04-12T00:12:29.504Z,99972.78
2023-04-12T00:14:56.050Z,99977.25
2023-04-12T00:17:22.439Z,99950.88
2023-04-12T00:19:49.962Z,99945.97
2023-04-12T00:22:16.781Z,99958.44
2023-04-12T00:24:43.568Z,99913.25
2023-04-12T00:27:09.997Z,99925.81
2023-04-12T00:29:36.387Z,99799.75
2023-04-12T00:32:03.834Z,99841.44
2023-04-12T00:34:30.416Z,99924.13
2023-04-12T00:36:56.756Z,99836.78
2023-04-12T00:39:23.322Z,99800.28
2023-04-12T00:41:49.657Z,99887.53
2023-04-12T00:44:17.976Z,99895.69
2023-04-12T00:46:46.363Z,99800.59
2023-04-12T00:49:13.255Z,99859.41
2023-04-12T00:51:39.729Z,99861.84
2023-04-12T00:54:06.892Z,99740.22
2023-04-12T00:56:34.397Z,99856.91
2023-04-12T00:59:02.002Z,99801.50
2023-04-12T01:01:28.484Z,99821.09
2023-04-12T01:04:00.920Z,99836.53
2023-04-12T01:06:46.551Z,99855.44
2023-04-12T01:09:40.453Z,99734.31
2023-04-12T01:12:48.650Z,99849.13
2023-04-12T01:15:16.476Z,99842.88
2023-04-12T01:18:08.117Z,99817.97
2023-04-12T01:20:48.274Z,99768.50
2023-04-12T01:23:28.779Z,99714.19
2023-04-12T01:26:02.753Z,99798.34
2023-04-12T01:28:33.945Z,99804.34
2023-04-12T01:31:04.179Z,99701.59
2023-04-12T01:33:31.771Z,99769.66
2023-04-12T01:36:00.818Z,99781.03
2023-04-12T01:38:27.709Z,99747.84
2023-04-12T01:40:54.878Z,99713.56
2023-04-12T01:43:21.313Z,99592.47
2023-04-12T01:45:47.814Z,99695.59
2023-04-12T01:48:14.328Z,99710.66
2023-04-12T01:51:04.442Z,99694.50
2023-04-12T01:53:54.546Z,99689.56
2023-04-12T01:56:22.762Z,99716.69
2023-04-12T01:58:53.406Z,99644.16
2023-04-12T02:01:19.986Z,99693.38
2023-04-12T02:03:49.955Z,99572.22
2023-04-12T02:06:20.751Z,99675.53
2023-04-12T02:08:47.925Z,99656.81
2023-04-12T02:11:14.765Z,99654.84
2023-04-12T02:13:41.266Z,99561.56
2023-04-12T02:16:10.563Z,99623.50
2023-04-12T02:18:37.002Z,99657.19
2023-04-12T02:21:03.344Z,99644.63
2023-04-12T02:23:29.734Z,99640.94
2023-04-12T02:25:56.363Z,99630.47
2023-04-12T02:28:23.188Z,99575.81
2023-04-12T02:30:53.339Z,99616.56
2023-04-12T02:33:25.337Z,99573.06
2023-04-12T02:35:52.337Z,99598.75
2023-04-12T02:38:18.740Z,99583.19
2023-04-12T02:40:45.114Z,99587.28
2023-04-12T02:43:11.502Z,99571.66
2023-04-12T02:45:38.027Z,99492.25
2023-04-12T02:48:05.262Z,99490.59
2023-04-12T02:50:31.751Z,99457.56
2023-04-12T02:52:58.095Z,99535.63
2023-04-12T02:55:25.647Z,99567.25
2023-04-12T02:57:52.069Z,99519.66
2023-04-12T03:00:18.619Z,99486.78
2023-04-12T03:02:45.232Z,99415.28
2023-04-12T03:05:12.333Z,99489.84
2023-04-12T03:07:38.733Z,99491.97
2023-04-12T03:10:07.343Z,99408.81
2023-04-12T03:12:33.734Z,99390.13
2023-04-12T03:15:00.083Z,99401.59
2023-04-12T03:17:26.567Z,99407.69
2023-04-12T03:19:52.966Z,99438.63
2023-04-12T03:22:19.324Z,99437.16
2023-04-12T03:24:46.514Z,99438.72
2023-04-12T03:27:12.963Z,99365.91
2023-04-12T03:29:39.396Z,99413.16
2023-04-12T03:32:05.952Z,99323.28
2023-04-12T03:34:32.509Z,99407.25
2023-04-12T03:37:00.883Z,99326.69
2023-04-12T03:39:27.644Z,99379.91
2023-04-12T03:41:54.304Z,99440.13
2023-04-12T03:44:21.288Z,99293.56
2023-04-12T03:46:48.672Z,99417.47
2023-04-12T03:49:16.464Z,99372.41
2023-04-12T03:51:43.473Z,99253.22
2023-04-12T03:54:11.288Z,99316.88
2023-04-12T03:56:38.457Z,99390.53
2023-04-12T03:59:07.682Z,99336.94
2023-04-12T04:01:34.888Z,99292.81
2023-04-12T04:04:02.159Z,99363.09
2023-04-12T04:06:29.773Z,99347.44
2023-04-12T04:08:57.243Z,99259.56
2023-04-12T04:11:24.872Z,99369.56
2023-04-12T04:13:51.796Z,99246.22
2023-04-12T04:16:18.268Z,99309.22
2023-04-12T04:18:44.778Z,99261.41
2023-04-12T04:21:11.138Z,99234.59
2023-04-12T04:23:40.627Z,99218.09
2023-04-12T04:26:10.537Z,99244.94
2023-04-12T04:28:44.926Z,99344.78
2023-04-12T04:31:12.962Z,99220.41
2023-04-12T04:33:40.151Z,99224.69
2023-04-12T04:36:09.893Z,99318.38
2023-04-12T04:38:36.315Z,99307.94
2023-04-12T04:41:03.322Z,99207.78
2023-04-12T04:43:30.745Z,99323.94
2023-04-12T04:45:58.194Z,99240.19
2023-04-12T04:48:24.881Z,99286.91
2023-04-12T04:50:54.258Z,99283.50
2023-04-12T04:53:22.323Z,99323.34
2023-04-12T04:55:48.981Z,99318.22
2023-04-12T04:58:16.495Z,99319.13
2023-04-12T05:00:44.842Z,99223.81
2023-04-12T05:03:11.874Z,99294.63
2023-04-12T05:05:38.469Z,99232.00
2023-04-12T05:08:05.523Z,99209.47
2023-04-12T05:10:31.922Z,99132.81
2023-04-12T05:12:58.245Z,99267.81
2023-04-12T05:15:24.568Z,99207.78
2023-04-12T05:17:51.139Z,99257.19
2023-04-12T05:20:18.358Z,99288.31
2023-04-12T05:22:44.833Z,99201.09
2023-04-12T05:25:13.816Z,99083.06
2023-04-12T05:27:40.231Z,99187.44
2023-04-12T05:30:07.961Z,99257.47
2023-04-12T05:32:36.736Z,99190.56
2023-04-12T05:35:03.411Z,99146.41
2023-04-12T05:37:32.049Z,99195.03
2023-04-12T05:40:01.157Z,99058.44
2023-04-12T05:42:28.537Z,99149.38
2023-04-12T05:44:56.380Z,99135.28
2023-04-12T05:47:22.831Z,99216.31
2023-04-12T05:49:49.535Z,99162.91
2023-04-12T05:52:18.729Z,99191.63
2023-04-12T05:54:45.178Z,99122.31
2023-04-12T05:57:12.394Z,99099.19
2023-04-12T05:59:41.022Z,99096.34
2023-04-12T06:02:08.668Z,99222.56
2023-04-12T06:04:49.249Z,99074.13
2023-04-12T06:07:18.951Z,99036.75
2023-04-12T06:09:45.484Z,99011.56
2023-04-12T06:12:11.942Z,99223.56
2023-04-12T06:14:38.355Z,99103.31
2023-04-12T06:17:04.811Z,99163.00
2023-04-12T06:19:31.347Z,99211.06
2023-04-12T06:21:57.730Z,99198.78
2023-04-12T06:24:24.103Z,99200.97
2023-04-12T06:26:50.607Z,99216.09
2023-04-12T06:29:21.505Z,99129.69
2023-04-12T06:31:48.392Z,99166.22
2023-04-12T06:34:15.877Z,99084.13
2023-04-12T06:36:43.454Z,99167.31
2023-04-12T06:39:11.949Z,99134.38
2023-04-12T06:41:38.352Z,99069.69
2023-04-12T06:44:06.227Z,99128.59
2023-04-12T06:46:32.677Z,99168.59
2023-04-12T06:48:59.337Z,99154.31
2023-04-12T06:51:26.009Z,99162.81
2023-04-12T06:53:56.121Z,99167.41
2023-04-12T06:56:22.502Z,99160.84
2023-04-12T06:58:48.974Z,99150.81
2023-04-12T07:01:17.762Z,99000.03
2023-04-12T07:03:44.456Z,99135.53
2023-04-12T07:06:23.724Z,99135.66
2023-04-12T07:08:51.219Z,99037.31
2023-04-12T07:11:21.547Z,99060.06
2023-04-12T07:13:51.358Z,99114.53
2023-04-12T07:16:18.461Z,99048.31
2023-04-12T07:18:48.342Z,99002.16
2023-04-12T07:21:17.243Z,99085.94
2023-04-12T07:23:46.815Z,99107.53
2023-04-12T07:26:13.247Z,99126.56
2023-04-12T07:29:13.279Z,98937.59
2023-04-12T07:31:39.792Z,99019.38
2023-04-12T07:37:17.920Z,99097.03
2023-04-12T07:43:31.294Z,99094.31
2023-04-12T07:47:01.283Z,99098.50
2023-04-12T07:53:52.520Z,99110.78
2023-04-12T08:15:33.982Z,99083.84
2023-04-12T08:18:01.315Z,99010.03
2023-04-12T08:20:27.848Z,99102.84
2023-04-12T08:22:54.864Z,99063.41
2023-04-12T08:25:22.070Z,98975.41
2023-04-12T08:27:49.802Z,98997.44
2023-04-12T08:30:19.480Z,98958.06
2023-04-12T08:36:52.894Z,99093.81
2023-04-12T08:39:24.253Z,99082.94
2023-04-12T08:45:38.175Z,99095.47
2023-04-12T08:48:05.825Z,99042.97
2023-04-12T08:50:32.538Z,98995.53
2023-04-12T08:52:59.593Z,98934.34
2023-04-12T08:55:26.248Z,99031.38
2023-04-12T08:57:59.831Z,99082.72
2023-04-12T09:00:32.269Z,99025.38
2023-04-12T09:02:58.964Z,99006.88
2023-04-12T09:05:50.231Z,98961.97
2023-04-12T09:08:17.546Z,99005.25
2023-04-12T09:10:44.104Z,98996.47
2023-04-12T09:13:10.638Z,98999.59
2023-04-12T09:15:47.650Z,98940.91
2023-04-12T09:18:17.141Z,99054.22
2023-04-12T09:20:43.820Z,98952.41
2023-04-12T09:23:21.448Z,99001.53
2023-04-12T09:25:50.181Z,99034.59
2023-04-12T09:28:27.940Z,98999.66
2023-04-12T09:30:56.229Z,99094.81
2023-04-12T09:33:38.145Z,99024.34
2023-04-12T09:36:14.222Z,98929.13
2023-04-12T09:38:43.012Z,99057.41
2023-04-12T09:41:21.517Z,99039.91
2023-04-12T09:43:50.311Z,99029.97
2023-04-12T09:46:16.961Z,99059.06
2023-04-12T09:48:51.700Z,99030.84
2023-04-12T09:51:51.472Z,98996.97
2023-04-12T09:54:18.440Z,99007.31
2023-04-12T09:56:45.696Z,99060.50
2023-04-12T09:59:14.146Z,99099.66
2023-04-12T10:01:41.756Z,99102.84
2023-04-12T10:04:10.179Z,98964.06
2023-04-12T10:06:41.264Z,98918.19
2023-04-12T10:09:08.906Z,99005.44
2023-04-12T10:11:35.777Z,98992.22
2023-04-12T10:14:03.205Z,99097.72
2023-04-12T10:16:30.804Z,99101.75
2023-04-12T10:19:02.188Z,99017.31
2023-04-12T10:21:28.907Z,99050.81
2023-04-12T10:23:55.631Z,99114.16
2023-04-12T10:26:22.083Z,99013.84
2023-04-12T10:29:25.330Z,99136.53
2023-04-12T10:31:53.059Z,99112.16
2023-04-12T10:34:24.791Z,98965.81
2023-04-12T10:36:53.526Z,98979.44
2023-04-12T10:39:45.118Z,99090.41
2023-04-12T10:42:29.209Z,98899.97
2023-04-12T10:45:51.738Z,99112.22
2023-04-12T10:48:34.861Z,99112.44
2023-04-12T10:51:28.644Z,99101.00
2023-04-12T10:54:07.390Z,99120.31
2023-04-12T10:56:41.342Z,99129.91
2023-04-12T10:59:12.239Z,99100.41
2023-04-12T11:01:40.469Z,99107.16
2023-04-12T11:04:08.203Z,99126.72
2023-04-12T11:06:53.504Z,99136.66
2023-04-12T11:09:30.060Z,99101.16
2023-04-12T11:12:06.497Z,99136.84
2023-04-12T11:14:35.066Z,99126.16
2023-04-12T11:17:14.533Z,99140.25
2023-04-12T11:19:45.185Z,99137.00
2023-04-12T11:22:13.956Z,98981.47
2023-04-12T11:24:41.229Z,99037.44
2023-04-12T11:27:10.421Z,98921.56
2023-04-12T11:29:36.925Z,99103.72
2023-04-12T11:32:04.724Z,99004.56
2023-04-12T11:34:35.431Z,99120.66
2023-04-12T11:37:07.946Z,99117.97
2023-04-12T11:39:39.528Z,98985.41
2023-04-12T11:42:08.646Z,98988.91
2023-04-12T11:44:55.127Z,98907.06
2023-04-12T11:47:24.238Z,98913.81
2023-04-12T11:49:55.617Z,99118.06
2023-04-12T11:52:31.258Z,99089.94
2023-04-12T11:55:01.403Z,99120.25
2023-04-12T11:57:28.992Z,99042.28
2023-04-12T11:59:57.492Z,99085.53
2023-04-12T12:02:27.661Z,99113.75
2023-04-12T12:04:57.194Z,99089.50
2023-04-12T12:07:26.766Z,98976.47
2023-04-12T12:09:53.978Z,99089.31
2023-04-12T12:12:23.994Z,99105.84
2023-04-12T12:14:50.582Z,99081.56
2023-04-12T12:17:17.420Z,98944.94
2023-04-12T12:19:46.246Z,99120.41
2023-04-12T12:22:20.305Z,98933.22
2023-04-12T12:24:55.748Z,98965.31
2023-04-12T12:27:24.108Z,98939.59
2023-04-12T12:30:01.124Z,98958.66
2023-04-12T12:32:37.903Z,99063.97
2023-04-12T12:38:39.285Z,99098.81
2023-04-12T12:41:14.639Z,99108.38
2023-04-12T12:43:47.728Z,99034.22
2023-04-12T12:46:14.967Z,99033.31
2023-04-12T12:48:42.027Z,98939.09
2023-04-12T12:51:09.841Z,99111.84
2023-04-12T12:53:36.882Z,98918.94
2023-04-12T12:56:03.334Z,98964.28
2023-04-12T12:58:30.291Z,99109.22
2023-04-12T13:00:56.702Z,98943.72
2023-04-12T13:03:23.489Z,98923.41
2023-04-12T13:05:50.740Z,98953.78
2023-04-12T13:08:19.381Z,98947.25
2023-04-12T13:10:45.848Z,99117.88
2023-04-12T13:13:12.242Z,98911.13
2023-04-12T13:15:38.869Z,99053.56
2023-04-12T13:18:05.591Z,99056.75
2023-04-12T13:20:31.973Z,99117.97
2023-04-12T13:22:59.007Z,99048.19
2023-04-12T13:25:26.622Z,98998.06
2023-04-12T13:27:53.135Z,99137.50
2023-04-12T13:30:20.115Z,99014.19
2023-04-12T13:32:46.820Z,98949.03
2023-04-12T13:35:13.708Z,99146.34
2023-04-12T13:37:40.382Z,99053.31
2023-04-12T13:40:09.109Z,99052.63
2023-04-12T13:42:35.642Z,98974.31
2023-04-12T13:45:03.795Z,98990.13
2023-04-12T13:47:31.431Z,98978.34
2023-04-12T13:49:58.084Z,99031.72
2023-04-12T13:52:24.552Z,99099.03
2023-04-12T13:54:51.535Z,99101.25
2023-04-12T13:57:18.180Z,99061.97
2023-04-12T13:59:47.205Z,99071.19
2023-04-12T14:02:17.360Z,99038.50
2023-04-12T14:04:55.139Z,99061.41
2023-04-12T14:07:21.820Z,98979.59
2023-04-12T14:09:48.860Z,98960.84
2023-04-12T14:12:15.683Z,99055.88
2023-04-12T14:14:42.397Z,99068.53
2023-04-12T14:17:08.922Z,99123.72
2023-04-12T14:19:36.063Z,99089.50
2023-04-12T14:22:02.660Z,99013.13
2023-04-12T14:24:29.183Z,98999.88
2023-04-12T14:26:57.090Z,99160.72
2023-04-12T14:29:23.577Z,99153.63
2023-04-12T14:31:50.243Z,99161.75
2023-04-12T14:34:16.702Z,99043.56
2023-04-12T14:36:47.364Z,99049.00
2023-04-12T14:39:14.926Z,99155.31
2023-04-12T14:41:50.706Z,99191.75
2023-04-12T14:44:19.614Z,98956.00
2023-04-12T14:46:47.003Z,99023.38
2023-04-12T14:49:14.259Z,98992.00
2023-04-12T14:51:41.134Z,99059.44
2023-04-12T14:54:07.744Z,99074.97
2023-04-12T14:56:40.987Z,99057.38
2023-04-12T14:59:11.619Z,99045.72
2023-04-12T15:01:44.434Z,99117.31
2023-04-12T15:04:11.305Z,99089.22
2023-04-12T15:06:44.647Z,99024.59
2023-04-12T15:09:11.474Z,99082.72
2023-04-12T15:11:39.927Z,99126.34
2023-04-12T15:14:09.949Z,99018.72
2023-04-12T15:16:36.602Z,99028.47
2023-04-12T15:19:10.751Z,99097.03
2023-04-12T15:21:43.533Z,98944.06
2023-04-12T15:24:09.994Z,99123.41
2023-04-12T15:26:39.243Z,99142.47
2023-04-12T15:29:06.931Z,99213.41
2023-04-12T15:31:33.410Z,99044.09
2023-04-12T15:34:02.649Z,99116.31
2023-04-12T15:36:34.173Z,99062.03
2023-04-12T15:39:01.715Z,99035.06
2023-04-12T15:41:33.984Z,99026.81
2023-04-12T15:44:00.648Z,99075.78
2023-04-12T15:46:27.253Z,99164.72
2023-04-12T15:48:53.746Z,99126.34
2023-04-12T15:51:20.200Z,99161.78
2023-04-12T15:53:46.674Z,99182.34
2023-04-12T15:56:15.346Z,99176.75
2023-04-12T15:58:43.100Z,99080.91
2023-04-12T16:01:10.290Z,99199.59
2023-04-12T16:03:37.324Z,99064.84
2023-04-12T16:06:05.334Z,98994.41
2023-04-12T16:08:31.876Z,99074.91
2023-04-12T16:10:58.744Z,99098.19
2023-04-12T16:13:25.317Z,99071.72
2023-04-12T16:15:52.363Z,99133.34
2023-04-12T16:18:18.933Z,99117.28
2023-04-12T16:20:45.393Z,99019.91
2023-04-12T16:23:11.908Z,99059.13
2023-04-12T16:25:48.666Z,99166.03
2023-04-12T16:28:17.948Z,99099.66
2023-04-12T16:30:44.468Z,99188.19
2023-04-12T16:33:11.226Z,99104.63
2023-04-12T16:35:38.421Z,99007.44
2023-04-12T16:38:05.108Z,99175.84
2023-04-12T16:40:31.731Z,99051.84
2023-04-12T16:42:58.152Z,99031.38
2023-04-12T16:45:25.002Z,99128.59
2023-04-12T16:47:51.515Z,99155.03
2023-04-12T16:50:18.058Z,99057.31
2023-04-12T16:52:44.534Z,99070.81
2023-04-12T16:55:12.466Z,99054.69
2023-04-12T16:57:40.935Z,99023.03
2023-04-12T17:00:22.163Z,99127.66
2023-04-12T17:02:50.460Z,99185.88
2023-04-12T17:05:17.927Z,99165.59
2023-04-12T17:07:50.562Z,99049.63
2023-04-12T17:10:18.421Z,98992.56
2023-04-12T17:12:50.298Z,99118.50
2023-04-12T17:15:18.163Z,99107.16
2023-04-12T17:17:52.556Z,99188.44
2023-04-12T17:20:22.067Z,99096.00
2023-04-12T17:22:49.770Z,99190.75
2023-04-12T17:25:18.217Z,99139.44
2023-04-12T17:27:47.909Z,99069.63
2023-04-12T17:30:16.567Z,99170.78
2023-04-12T17:32:45.285Z,99058.09
2023-04-12T17:35:13.049Z,98981.09
2023-04-12T17:37:39.684Z,99149.59
2023-04-12T17:40:07.919Z,99138.78
2023-04-12T17:42:34.382Z,99182.97
2023-04-12T17:45:01.081Z,99018.53
2023-04-12T17:47:27.563Z,99107.06
2023-04-12T17:49:54.101Z,99170.78
2023-04-12T17:52:20.748Z,99176.53
2023-04-12T17:54:47.222Z,99171.03
2023-04-12T17:57:13.648Z,99186.44
2023-04-12T17:59:40.076Z,99106.25
2023-04-12T18:02:06.852Z,99188.88
2023-04-12T18:04:33.829Z,99199.38
2023-04-12T18:07:01.245Z,99180.44
2023-04-12T18:09:28.446Z,99125.03
2023-04-12T18:11:54.865Z,99162.91
2023-04-12T18:14:21.302Z,99176.03
2023-04-12T18:16:48.092Z,99096.75
2023-04-12T18:19:16.464Z,99201.50
2023-04-12T18:21:46.945Z,99157.16
2023-04-12T18:24:13.387Z,99173.63
2023-04-12T18:26:39.860Z,99146.81
2023-04-12T18:29:06.443Z,99157.22
2023-04-12T18:31:32.966Z,99162.94
2023-04-12T18:33:59.479Z,99174.63
2023-04-12T18:36:27.132Z,99184.97
2023-04-12T18:38:53.497Z,99187.47
2023-04-12T18:41:19.900Z,99180.38
2023-04-12T18:43:46.508Z,99196.28
2023-04-12T18:46:17.636Z,99203.47
2023-04-12T18:48:45.700Z,99188.16
2023-04-12T18:51:12.979Z,99080.53
2023-04-12T18:53:39.342Z,99130.69
2023-04-12T18:56:13.656Z,99234.97
2023-04-12T18:58:51.100Z,99235.75
2023-04-12T19:01:22.038Z,99175.47
2023-04-12T19:03:48.722Z,99181.91
2023-04-12T19:06:15.347Z,99214.34
2023-04-12T19:08:43.064Z,99119.09
2023-04-12T19:11:09.712Z,99238.16
2023-04-12T19:13:37.065Z,99209.13
2023-04-12T19:16:07.315Z,99169.44
2023-04-12T19:18:34.325Z,99213.88
2023-04-12T19:21:01.898Z,99233.09
2023-04-12T19:23:29.066Z,99197.41
2023-04-12T19:25:57.457Z,99155.03
2023-04-12T19:28:24.447Z,99229.53
2023-04-12T19:30:51.036Z,99258.84
2023-04-12T19:33:18.173Z,99304.03
2023-04-12T19:35:44.569Z,99305.78
2023-04-12T19:38:10.934Z,99310.97
2023-04-12T19:40:37.555Z,99342.97
2023-04-12T19:43:04.508Z,99279.78
2023-04-12T19:45:31.218Z,99082.97
2023-04-12T19:47:57.830Z,99219.22
2023-04-12T19:50:25.914Z,99098.97
2023-04-12T19:52:52.645Z,99261.13
2023-04-12T19:55:21.289Z,99257.34
2023-04-12T19:57:47.838Z,99211.66
2023-04-12T20:00:22.570Z,99143.63
2023-04-12T20:02:51.148Z,99139.59
2023-04-12T20:05:17.859Z,99130.00
2023-04-12T20:07:44.421Z,99237.94
2023-04-12T20:10:11.856Z,99144.88
2023-04-12T20:12:38.513Z,99108.81
2023-04-12T20:15:08.196Z,99207.53
2023-04-12T20:17:47.949Z,99079.97
2023-04-12T20:20:15.440Z,99194.19
2023-04-12T20:22:43.534Z,99223.31
2023-04-12T20:25:14.498Z,99243.81
2023-04-12T20:27:41.105Z,99210.41
2023-04-12T20:30:08.937Z,99239.81
2023-04-12T20:32:36.030Z,99170.88
2023-04-12T20:35:06.452Z,99106.19
2023-04-12T20:37:33.686Z,99229.53
2023-04-12T20:40:00.746Z,99146.59
2023-04-12T20:42:30.854Z,99059.72
2023-04-12T20:44:57.431Z,99143.41
2023-04-12T20:47:23.932Z,99074.47
2023-04-12T20:49:50.686Z,99078.09
2023-04-12T20:52:20.428Z,99222.47
2023-04-12T20:54:48.276Z,99223.75
2023-04-12T20:57:19.597Z,99120.03
2023-04-12T20:59:46.679Z,99098.34
2023-04-12T21:02:15.325Z,99254.06
2023-04-12T21:04:42.006Z,99206.09
2023-04-12T21:07:11.608Z,99200.97
2023-04-12T21:09:38.660Z,99202.22
2023-04-12T21:12:08.264Z,99199.03
2023-04-12T21:14:36.097Z,99231.28
2023-04-12T21:17:06.630Z,99188.03
2023-04-12T21:19:41.670Z,99193.59
2023-04-12T21:22:10.427Z,99105.63
2023-04-12T21:24:38.607Z,99065.38
2023-04-12T21:27:09.564Z,99170.41
2023-04-12T21:29:41.336Z,99185.41
2023-04-12T21:32:08.854Z,99057.25
2023-04-12T21:34:36.995Z,99154.09
2023-04-12T21:37:04.166Z,99142.22
2023-04-12T21:39:30.983Z,99148.22
2023-04-12T21:41:58.119Z,99114.78
2023-04-12T21:44:25.354Z,99079.56
2023-04-12T21:46:51.874Z,99108.50
2023-04-12T21:49:18.362Z,99114.53
2023-04-12T21:51:46.355Z,99054.91
2023-04-12T21:54:12.866Z,99159.44
2023-04-12T21:56:39.321Z,98975.81
2023-04-12T21:59:06.968Z,99149.91
2023-04-12T22:01:33.938Z,99137.25
2023-04-12T22:04:02.580Z,98956.25
2023-04-12T22:06:30.362Z,98937.19
2023-04-12T22:08:57.147Z,98887.78
2023-04-12T22:11:23.709Z,99028.09
2023-04-12T22:13:50.169Z,99113.06
2023-04-12T22:16:16.864Z,99015.94
2023-04-12T22:18:48.110Z,99023.44
2023-04-12T22:21:15.260Z,99066.84
2023-04-12T22:23:41.623Z,99091.84
2023-04-12T22:26:08.667Z,98950.88
2023-04-12T22:28:37.798Z,99081.16
2023-04-12T22:31:05.725Z,99067.88
2023-04-12T22:33:32.308Z,98957.78
2023-04-12T22:35:58.859Z,98946.69
2023-04-12T22:38:25.407Z,99020.78
2023-04-12T22:40:54.561Z,98882.78
2023-04-12T22:43:22.742Z,98986.13
2023-04-12T22:45:49.116Z,99063.69
2023-04-12T22:48:15.528Z,98928.91
2023-04-12T22:50:44.682Z,99035.41
2023-04-12T22:53:11.450Z,98947.06
2023-04-12T22:55:42.115Z,98974.34
2023-04-12T22:58:08.530Z,99035.41
2023-04-12T23:00:35.175Z,99014.19
2023-04-12T23:03:05.417Z,98911.34
2023-04-12T23:05:31.963Z,99042.13
2023-04-12T23:07:58.961Z,99056.16
2023-04-12T23:10:25.407Z,99022.41
2023-04-12T23:12:53.434Z,98953.44
2023-04-12T23:15:20.531Z,98927.47
2023-04-12T23:17:49.791Z,98942.69
2023-04-12T23:20:17.065Z,99027.88
2023-04-12T23:22:57.937Z,98852.81
2023-04-12T23:25:41.525Z,98869.88
2023-04-12T23:28:12.538Z,99043.00
2023-04-12T23:30:42.546Z,99034.13
2023-04-12T23:33:09.396Z,98980.13
2023-04-12T23:35:39.253Z,99036.72
2023-04-12T23:38:05.739Z,99009.84
2023-04-12T23:40:32.093Z,99012.47
2023-04-12T23:42:58.590Z,98971.25
2023-04-12T23:45:24.975Z,99018.47
2023-04-12T23:47:51.611Z,99034.66
2023-04-12T23:50:18.142Z,98972.03
2023-04-12T23:52:44.885Z,99025.00
2023-04-12T23:55:11.251Z,98987.38
2023-04-12T23:57:37.679Z,98825.16
